Time;durP1;ratioP1;P1;durP2;ratioP2;P2;SDS_P1;SDS_P2;PMS_P1;PMS_P2;Temp;Humidity;BMP_temperature;BMP_pressure;BME280_temperature;BME280_humidity;BME280_pressure;Samples;Min_cycle;Max_cycle;Signal;HPM_P1;HPM_P2
2021/12/03 00:01:49;;;;;;;2.65;1.92;;;;;;;;;;5058785;28;20056;-83
2021/12/03 00:04:14;;;;;;;6.15;2.72;;;;;;;;;;5060175;28;20033;-84
2021/12/03 00:06:40;;;;;;;7.78;3.28;;;;;;;;;;5056637;28;20484;-84
2021/12/03 00:09:07;;;;;;;6.30;3.22;;;;;;;;;;5053491;28;20048;-82
2021/12/03 00:11:33;;;;;;;4.32;2.88;;;;;;;;;;5059675;28;20033;-82
2021/12/03 00:13:59;;;;;;;5.55;3.08;;;;;;;;;;5053267;28;20021;-82
2021/12/03 00:16:25;;;;;;;4.40;2.95;;;;;;;;;;5055297;28;20059;-84
2021/12/03 00:18:50;;;;;;;6.72;3.30;;;;;;;;;;5057243;28;20111;-83
2021/12/03 00:21:17;;;;;;;7.57;3.25;;;;;;;;;;5055767;28;20029;-81
2021/12/03 00:23:43;;;;;;;6.93;2.65;;;;;;;;;;5057032;28;20606;-85
2021/12/03 00:26:09;;;;;;;4.90;2.70;;;;;;;;;;5050848;28;20067;-82
2021/12/03 00:28:35;;;;;;;4.32;1.70;;;;;;;;;;5055553;28;20032;-85
2021/12/03 00:31:01;;;;;;;3.85;2.22;;;;;;;;;;5057455;28;20531;-83
2021/12/03 00:33:30;;;;;;;2.33;1.45;;;;;;;;;;5060794;28;20035;-82
2021/12/03 00:35:56;;;;;;;1.95;1.67;;;;;;;;;;5068942;28;20067;-83
2021/12/03 00:38:22;;;;;;;3.95;2.00;;;;;;;;;;5059489;28;20056;-86
2021/12/03 00:40:48;;;;;;;2.40;1.70;;;;;;;;;;5053996;28;20392;-83
2021/12/03 00:43:14;;;;;;;4.00;1.98;;;;;;;;;;5056916;28;20103;-85
2021/12/03 00:45:42;;;;;;;3.70;1.95;;;;;;;;;;5075051;28;20517;-83
2021/12/03 00:48:08;;;;;;;2.72;1.77;;;;;;;;;;5055527;28;20036;-84
2021/12/03 00:50:33;;;;;;;2.95;1.73;;;;;;;;;;5052706;28;20025;-83
2021/12/03 00:53:00;;;;;;;2.78;1.67;;;;;;;;;;5052958;28;20527;-86
2021/12/03 00:55:27;;;;;;;2.85;1.73;;;;;;;;;;5052472;28;20075;-84
2021/12/03 00:57:53;;;;;;;3.63;2.03;;;;;;;;;;5060186;28;20537;-85
2021/12/03 01:00:29;;;;;;;6.00;2.60;;;;;;;;;;5066461;28;20037;-82
2021/12/03 01:02:58;;;;;;;4.32;2.35;;;;;;;;;;5066983;28;20166;-85
2021/12/03 01:05:24;;;;;;;4.95;2.38;;;;;;;;;;5066730;28;20065;-82
2021/12/03 01:07:55;;;;;;;4.00;2.03;;;;;;;;;;5057401;28;20037;-83
2021/12/03 01:10:22;;;;;;;6.03;2.15;;;;;;;;;;5069312;28;20054;-82
2021/12/03 01:12:48;;;;;;;5.15;2.30;;;;;;;;;;5051442;28;20481;-83
2021/12/03 01:15:18;;;;;;;3.90;2.10;;;;;;;;;;5058449;28;20542;-83
2021/12/03 01:17:44;;;;;;;5.18;2.03;;;;;;;;;;5063709;28;20020;-82
2021/12/03 01:20:13;;;;;;;6.07;3.35;;;;;;;;;;5051646;28;20037;-82
2021/12/03 01:22:40;;;;;;;3.70;2.60;;;;;;;;;;5052049;28;20106;-82
2021/12/03 01:25:09;;;;;;;4.47;2.72;;;;;;;;;;5065219;28;20036;-83
2021/12/03 01:27:35;;;;;;;8.18;2.72;;;;;;;;;;5060454;28;20104;-82
2021/12/03 01:30:00;;;;;;;6.55;2.20;;;;;;;;;;5056284;28;20107;-82
2021/12/03 01:32:26;;;;;;;3.78;1.95;;;;;;;;;;5065050;28;20046;-82
2021/12/03 01:34:51;;;;;;;4.28;2.40;;;;;;;;;;5066408;28;20029;-82
2021/12/03 01:37:17;;;;;;;2.97;1.70;;;;;;;;;;5073619;28;20067;-82
2021/12/03 01:39:43;;;;;;;3.90;2.47;;;;;;;;;;5057706;28;20414;-85
2021/12/03 01:42:09;;;;;;;2.28;1.73;;;;;;;;;;5060411;28;20033;-82
2021/12/03 01:44:34;;;;;;;3.80;1.50;;;;;;;;;;5061307;28;20419;-83
2021/12/03 01:47:00;;;;;;;3.75;2.17;;;;;;;;;;5062646;28;20044;-82
2021/12/03 01:49:26;;;;;;;2.17;1.42;;;;;;;;;;5059804;28;20024;-82
2021/12/03 01:51:51;;;;;;;5.30;1.50;;;;;;;;;;5064122;28;20404;-83
2021/12/03 01:54:17;;;;;;;2.75;1.50;;;;;;;;;;5060648;28;20029;-83
2021/12/03 01:56:42;;;;;;;3.53;2.05;;;;;;;;;;5062380;28;20020;-84
2021/12/03 01:59:10;;;;;;;2.53;1.88;;;;;;;;;;5068967;28;20032;-86
2021/12/03 02:01:36;;;;;;;4.38;1.35;;;;;;;;;;5060131;28;20476;-83
2021/12/03 02:04:05;;;;;;;2.83;1.98;;;;;;;;;;5060202;28;20029;-86
2021/12/03 02:06:32;;;;;;;4.63;1.90;;;;;;;;;;5059540;28;20031;-84
2021/12/03 02:08:59;;;;;;;2.00;1.35;;;;;;;;;;5077603;28;20036;-86
2021/12/03 02:11:24;;;;;;;1.95;1.10;;;;;;;;;;5063401;28;20406;-87
2021/12/03 02:13:50;;;;;;;2.80;1.70;;;;;;;;;;5063217;28;20025;-84
2021/12/03 02:16:18;;;;;;;2.47;1.52;;;;;;;;;;5060693;28;20100;-84
2021/12/03 02:18:45;;;;;;;3.05;1.65;;;;;;;;;;5065658;28;20181;-83
2021/12/03 02:21:12;;;;;;;3.10;1.42;;;;;;;;;;5069486;28;20468;-90
2021/12/03 02:23:39;;;;;;;6.03;1.50;;;;;;;;;;5066674;28;20111;-85
2021/12/03 02:26:05;;;;;;;2.90;1.48;;;;;;;;;;5065078;28;20469;-84
2021/12/03 02:28:40;;;;;;;2.40;1.70;;;;;;;;;;5055840;28;20028;-84
2021/12/03 02:31:06;;;;;;;5.47;2.20;;;;;;;;;;5064311;28;20047;-84
2021/12/03 02:33:33;;;;;;;2.70;1.42;;;;;;;;;;5063104;28;20111;-83
2021/12/03 02:35:59;;;;;;;2.92;1.73;;;;;;;;;;5051886;28;20035;-85
2021/12/03 02:38:26;;;;;;;2.58;1.73;;;;;;;;;;5061812;28;20028;-86
2021/12/03 02:40:52;;;;;;;4.53;1.60;;;;;;;;;;5064786;28;20016;-84
2021/12/03 02:43:18;;;;;;;2.83;2.10;;;;;;;;;;5056726;28;20067;-86
2021/12/03 02:45:43;;;;;;;2.60;1.65;;;;;;;;;;5060214;28;20048;-86
2021/12/03 02:48:09;;;;;;;2.53;1.70;;;;;;;;;;5065168;28;20028;-84
2021/12/03 02:50:35;;;;;;;2.00;1.75;;;;;;;;;;5061112;28;20465;-83
2021/12/03 02:53:01;;;;;;;3.53;2.10;;;;;;;;;;5064514;28;20099;-84
2021/12/03 02:55:27;;;;;;;4.05;1.50;;;;;;;;;;5065328;28;20045;-84
2021/12/03 02:57:52;;;;;;;2.33;1.60;;;;;;;;;;5060946;28;20048;-86
2021/12/03 03:00:22;;;;;;;2.65;1.90;;;;;;;;;;5063797;28;20039;-85
2021/12/03 03:02:47;;;;;;;3.47;1.70;;;;;;;;;;5056450;28;20480;-83
2021/12/03 03:05:16;;;;;;;3.33;1.52;;;;;;;;;;5056791;28;20093;-84
2021/12/03 03:07:42;;;;;;;3.30;1.70;;;;;;;;;;5055657;28;20036;-84
2021/12/03 03:10:10;;;;;;;3.92;2.00;;;;;;;;;;5062106;28;20075;-85
2021/12/03 03:12:39;;;;;;;4.45;2.13;;;;;;;;;;5059772;28;20104;-84
2021/12/03 03:15:06;;;;;;;6.07;2.10;;;;;;;;;;5063707;28;20025;-85
2021/12/03 03:17:32;;;;;;;3.70;2.38;;;;;;;;;;5056466;28;20079;-84
2021/12/03 03:19:59;;;;;;;4.60;2.00;;;;;;;;;;5066350;28;20024;-85
2021/12/03 03:22:26;;;;;;;4.53;2.28;;;;;;;;;;5053889;28;20021;-83
2021/12/03 03:24:53;;;;;;;3.20;1.83;;;;;;;;;;5066686;28;20024;-83
2021/12/03 03:27:21;;;;;;;3.95;2.20;;;;;;;;;;5070241;28;20024;-84
2021/12/03 03:29:48;;;;;;;4.63;1.70;;;;;;;;;;5058770;28;20021;-83
2021/12/03 03:32:15;;;;;;;4.78;2.90;;;;;;;;;;5060787;28;20052;-82
2021/12/03 03:34:41;;;;;;;4.88;2.42;;;;;;;;;;5062322;28;20039;-83
2021/12/03 03:37:07;;;;;;;6.80;1.75;;;;;;;;;;5061773;28;20021;-83
2021/12/03 03:39:33;;;;;;;3.08;1.80;;;;;;;;;;5070216;28;20028;-82
2021/12/03 03:41:59;;;;;;;4.18;2.00;;;;;;;;;;5059123;28;20029;-83
2021/12/03 03:44:25;;;;;;;3.45;1.80;;;;;;;;;;5057046;28;20473;-89
2021/12/03 03:46:53;;;;;;;7.82;2.83;;;;;;;;;;5067482;28;20052;-84
2021/12/03 03:49:20;;;;;;;4.03;2.22;;;;;;;;;;5061649;28;20099;-83
2021/12/03 03:51:47;;;;;;;3.88;2.25;;;;;;;;;;5063840;28;20078;-83
2021/12/03 03:54:13;;;;;;;7.45;2.40;;;;;;;;;;5065622;28;20032;-83
2021/12/03 03:56:39;;;;;;;3.42;1.75;;;;;;;;;;5065152;28;20020;-84
2021/12/03 03:59:04;;;;;;;5.15;2.30;;;;;;;;;;5082350;28;20024;-82
2021/12/03 04:01:30;;;;;;;4.47;2.53;;;;;;;;;;5063202;28;20025;-83
2021/12/03 04:03:55;;;;;;;2.33;1.65;;;;;;;;;;5063998;28;20021;-83
2021/12/03 04:06:22;;;;;;;2.55;1.60;;;;;;;;;;5068995;28;20028;-83
2021/12/03 04:08:48;;;;;;;2.15;1.85;;;;;;;;;;5064905;28;20036;-86
2021/12/03 04:11:17;;;;;;;5.47;3.10;;;;;;;;;;5065386;28;20146;-85
2021/12/03 04:13:43;;;;;;;4.40;2.03;;;;;;;;;;5061783;28;20056;-83
2021/12/03 04:16:09;;;;;;;4.35;1.98;;;;;;;;;;5061462;28;20415;-83
2021/12/03 04:18:34;;;;;;;3.15;1.50;;;;;;;;;;5061327;28;20539;-83
2021/12/03 04:21:00;;;;;;;2.15;1.60;;;;;;;;;;5061496;28;20029;-83
2021/12/03 04:23:26;;;;;;;2.40;1.58;;;;;;;;;;5061100;28;20452;-82
2021/12/03 04:25:51;;;;;;;3.30;1.88;;;;;;;;;;5069681;28;20111;-81
2021/12/03 04:28:20;;;;;;;4.40;1.70;;;;;;;;;;5062235;28;20060;-84
2021/12/03 04:30:47;;;;;;;3.40;1.90;;;;;;;;;;5053885;28;20078;-83
2021/12/03 04:33:13;;;;;;;5.03;1.70;;;;;;;;;;5067894;28;20025;-84
2021/12/03 04:35:42;;;;;;;3.38;2.30;;;;;;;;;;5056440;28;20037;-81
2021/12/03 04:38:08;;;;;;;3.85;1.90;;;;;;;;;;5064993;28;20040;-81
2021/12/03 04:40:37;;;;;;;5.30;1.45;;;;;;;;;;5072579;28;20380;-85
2021/12/03 04:43:03;;;;;;;4.30;1.77;;;;;;;;;;5065166;28;20025;-84
2021/12/03 04:45:29;;;;;;;6.53;1.38;;;;;;;;;;5066766;28;20078;-82
2021/12/03 04:47:56;;;;;;;2.35;1.42;;;;;;;;;;5058556;28;20021;-83
2021/12/03 04:50:26;;;;;;;1.75;1.25;;;;;;;;;;5061171;28;20532;-82
2021/12/03 04:52:51;;;;;;;2.40;1.00;;;;;;;;;;5063495;28;20087;-82
2021/12/03 04:55:18;;;;;;;3.13;1.52;;;;;;;;;;5066054;28;20052;-83
2021/12/03 04:57:44;;;;;;;3.50;1.20;;;;;;;;;;5070238;28;20511;-83
2021/12/03 05:00:17;;;;;;;3.08;1.20;;;;;;;;;;5060846;28;20036;-86
2021/12/03 05:02:44;;;;;;;4.00;1.42;;;;;;;;;;5061749;28;20453;-82
2021/12/03 05:05:09;;;;;;;5.00;1.40;;;;;;;;;;5061466;28;20136;-81
2021/12/03 05:10:03;;;;;;;4.20;1.95;;;;;;;;;;5052516;28;20083;-83
2021/12/03 05:12:29;;;;;;;2.72;1.77;;;;;;;;;;5068623;28;20388;-83
2021/12/03 05:14:54;;;;;;;3.67;2.13;;;;;;;;;;5055462;28;20025;-84
2021/12/03 05:17:20;;;;;;;5.75;2.25;;;;;;;;;;5064525;28;20423;-82
2021/12/03 05:19:46;;;;;;;5.38;2.13;;;;;;;;;;5064473;28;20025;-82
2021/12/03 05:22:13;;;;;;;3.35;1.63;;;;;;;;;;5056256;28;20032;-88
2021/12/03 05:24:39;;;;;;;1.85;1.33;;;;;;;;;;5065077;28;20079;-82
2021/12/03 05:27:05;;;;;;;2.35;1.17;;;;;;;;;;5054336;28;20033;-81
2021/12/03 05:29:30;;;;;;;3.50;2.00;;;;;;;;;;5079587;28;20035;-83
2021/12/03 05:31:56;;;;;;;5.95;2.17;;;;;;;;;;5061423;28;20074;-82
2021/12/03 05:34:22;;;;;;;3.97;1.95;;;;;;;;;;5063231;28;20032;-82
2021/12/03 05:36:48;;;;;;;3.33;1.98;;;;;;;;;;5061222;28;20506;-84
2021/12/03 05:39:14;;;;;;;5.53;1.75;;;;;;;;;;5065866;28;20049;-83
2021/12/03 05:41:39;;;;;;;5.07;1.73;;;;;;;;;;5061395;28;20021;-81
2021/12/03 05:44:05;;;;;;;2.33;0.95;;;;;;;;;;5057631;28;20024;-82
2021/12/03 05:46:31;;;;;;;1.63;1.23;;;;;;;;;;5073856;28;20055;-86
2021/12/03 05:48:57;;;;;;;2.97;1.50;;;;;;;;;;5065338;28;20027;-83
2021/12/03 05:51:25;;;;;;;5.15;2.35;;;;;;;;;;5065727;28;20119;-81
2021/12/03 05:53:51;;;;;;;3.22;1.55;;;;;;;;;;5062775;28;20388;-80
2021/12/03 05:56:16;;;;;;;7.22;1.40;;;;;;;;;;5067284;28;20035;-81
2021/12/03 05:58:42;;;;;;;3.97;1.20;;;;;;;;;;5064770;28;20020;-79
2021/12/03 06:01:07;;;;;;;4.15;1.52;;;;;;;;;;5063332;28;20025;-82
2021/12/03 06:03:33;;;;;;;3.38;1.35;;;;;;;;;;5056243;28;20092;-79
2021/12/03 06:05:58;;;;;;;3.83;1.48;;;;;;;;;;5065762;28;20020;-83
2021/12/03 06:08:24;;;;;;;8.63;2.13;;;;;;;;;;5061667;28;20505;-80
2021/12/03 06:10:49;;;;;;;4.88;1.73;;;;;;;;;;5062993;28;20422;-82
2021/12/03 06:13:15;;;;;;;4.38;1.75;;;;;;;;;;5062356;28;20433;-80
2021/12/03 06:15:40;;;;;;;4.10;1.33;;;;;;;;;;5053389;28;20546;-81
2021/12/03 06:18:06;;;;;;;2.60;1.10;;;;;;;;;;5057815;28;20074;-80
2021/12/03 06:20:31;;;;;;;3.85;1.25;;;;;;;;;;5064948;28;20021;-80
2021/12/03 06:22:57;;;;;;;3.10;1.20;;;;;;;;;;5067724;28;20021;-80
2021/12/03 06:25:22;;;;;;;3.83;1.27;;;;;;;;;;5050952;28;20461;-79
2021/12/03 06:27:50;;;;;;;3.22;1.15;;;;;;;;;;5050944;28;20025;-80
2021/12/03 06:30:19;;;;;;;5.50;1.38;;;;;;;;;;5049670;28;20029;-80
2021/12/03 06:32:45;;;;;;;2.40;1.45;;;;;;;;;;5058525;28;20078;-81
2021/12/03 06:35:13;;;;;;;3.35;1.30;;;;;;;;;;5070310;28;20040;-80
2021/12/03 06:37:39;;;;;;;6.82;1.20;;;;;;;;;;5071174;28;20027;-80
2021/12/03 06:40:07;;;;;;;3.17;2.00;;;;;;;;;;5067778;28;20032;-82
2021/12/03 06:42:32;;;;;;;3.17;1.20;;;;;;;;;;5067707;28;20032;-79
2021/12/03 06:44:58;;;;;;;4.50;1.88;;;;;;;;;;5050930;28;20036;-81
2021/12/03 06:47:24;;;;;;;3.00;1.33;;;;;;;;;;5049571;28;20120;-83
2021/12/03 06:49:49;;;;;;;4.80;1.75;;;;;;;;;;5050613;28;20059;-79
2021/12/03 06:52:16;;;;;;;7.15;1.80;;;;;;;;;;5050549;28;20328;-80
2021/12/03 06:54:43;;;;;;;5.78;1.77;;;;;;;;;;5059925;28;20046;-79
2021/12/03 06:57:09;;;;;;;6.90;1.50;;;;;;;;;;5062301;28;20051;-81
2021/12/03 06:59:36;;;;;;;5.40;1.75;;;;;;;;;;5065370;28;20056;-82
2021/12/03 07:02:02;;;;;;;4.38;1.88;;;;;;;;;;5057606;28;20054;-80
2021/12/03 07:04:27;;;;;;;2.35;1.33;;;;;;;;;;5060436;28;20121;-80
2021/12/03 07:06:53;;;;;;;8.02;3.70;;;;;;;;;;5059862;28;20027;-80
2021/12/03 07:09:19;;;;;;;5.72;1.80;;;;;;;;;;5062051;28;20024;-81
2021/12/03 07:11:45;;;;;;;7.65;2.85;;;;;;;;;;5062113;28;20032;-80
2021/12/03 07:14:11;;;;;;;2.75;1.55;;;;;;;;;;5065619;28;20476;-83
2021/12/03 07:16:37;;;;;;;7.18;1.67;;;;;;;;;;5059095;28;20623;-81
2021/12/03 07:19:03;;;;;;;10.25;2.50;;;;;;;;;;5062559;28;20461;-79
2021/12/03 07:21:29;;;;;;;2.35;0.82;;;;;;;;;;5059723;28;20419;-80
2021/12/03 07:23:55;;;;;;;4.78;1.52;;;;;;;;;;5061086;28;20025;-80
2021/12/03 07:26:23;;;;;;;3.83;1.10;;;;;;;;;;5061839;28;20039;-80
2021/12/03 07:28:50;;;;;;;4.18;1.58;;;;;;;;;;5059402;28;20443;-80
2021/12/03 07:31:16;;;;;;;6.68;1.30;;;;;;;;;;5062533;28;20020;-79
2021/12/03 07:33:41;;;;;;;4.53;1.48;;;;;;;;;;5063543;28;20499;-80
2021/12/03 07:36:07;;;;;;;6.10;2.05;;;;;;;;;;5062087;28;20044;-83
2021/12/03 07:38:34;;;;;;;5.63;2.58;;;;;;;;;;5066853;28;20380;-80
2021/12/03 07:41:01;;;;;;;3.03;1.05;;;;;;;;;;5057479;28;20064;-81
2021/12/03 07:43:26;;;;;;;4.40;1.00;;;;;;;;;;5060923;28;20024;-82
2021/12/03 07:45:52;;;;;;;5.03;1.00;;;;;;;;;;5061719;28;20374;-81
2021/12/03 07:48:21;;;;;;;6.82;1.50;;;;;;;;;;5053198;28;20033;-83
2021/12/03 07:50:48;;;;;;;3.10;1.05;;;;;;;;;;5054830;28;20052;-81
2021/12/03 07:53:17;;;;;;;6.18;1.10;;;;;;;;;;5067348;28;20058;-82
2021/12/03 07:55:43;;;;;;;6.28;1.45;;;;;;;;;;5063632;28;20024;-80
2021/12/03 07:58:09;;;;;;;11.50;5.45;;;;;;;;;;5065235;28;20055;-81
2021/12/03 08:00:35;;;;;;;5.32;1.42;;;;;;;;;;5065593;28;20512;-81
2021/12/03 08:03:01;;;;;;;4.57;1.42;;;;;;;;;;5059551;28;20029;-81
2021/12/03 08:05:27;;;;;;;4.38;1.17;;;;;;;;;;5054357;28;20032;-85
2021/12/03 08:07:52;;;;;;;3.78;1.10;;;;;;;;;;5077745;28;20073;-82
2021/12/03 08:10:18;;;;;;;5.35;1.30;;;;;;;;;;5067229;28;20036;-79
2021/12/03 08:12:45;;;;;;;5.40;1.83;;;;;;;;;;5064263;28;20494;-79
2021/12/03 08:15:11;;;;;;;3.33;1.67;;;;;;;;;;5063672;28;20029;-81
2021/12/03 08:17:37;;;;;;;1.92;0.88;;;;;;;;;;5064139;28;20099;-80
2021/12/03 08:20:05;;;;;;;2.10;1.00;;;;;;;;;;5063153;28;20151;-82
2021/12/03 08:22:31;;;;;;;3.67;1.17;;;;;;;;;;5067897;28;20103;-81
2021/12/03 08:24:56;;;;;;;5.85;1.40;;;;;;;;;;5057913;28;20036;-78
2021/12/03 08:27:22;;;;;;;6.70;1.10;;;;;;;;;;5068546;28;20035;-81
2021/12/03 08:29:48;;;;;;;3.90;1.10;;;;;;;;;;5060287;28;20028;-82
2021/12/03 08:32:13;;;;;;;12.30;5.03;;;;;;;;;;5058078;28;20088;-79
2021/12/03 08:34:39;;;;;;;8.45;2.40;;;;;;;;;;5064270;28;20044;-81
2021/12/03 08:37:07;;;;;;;3.95;1.40;;;;;;;;;;5064301;28;20097;-82
2021/12/03 08:39:33;;;;;;;4.35;1.10;;;;;;;;;;5065512;28;20396;-84
2021/12/03 08:41:59;;;;;;;2.35;1.10;;;;;;;;;;5066469;28;20052;-84
2021/12/03 08:44:25;;;;;;;3.92;1.33;;;;;;;;;;5061548;28;20020;-81
2021/12/03 08:46:58;;;;;;;3.25;1.20;;;;;;;;;;5065941;28;20059;-80
2021/12/03 08:52:09;;;;;;;3.05;1.17;;;;;;;;;;5062088;28;20029;-81
2021/12/03 08:54:55;;;;;;;5.13;2.35;;;;;;;;;;5062021;28;20500;-81
2021/12/03 08:57:24;;;;;;;5.38;1.35;;;;;;;;;;5068964;28;20044;-83
2021/12/03 08:59:56;;;;;;;5.72;1.00;;;;;;;;;;5056266;28;20154;-82
2021/12/03 09:02:23;;;;;;;2.33;1.00;;;;;;;;;;5060198;28;20175;-80
2021/12/03 09:04:49;;;;;;;4.72;1.20;;;;;;;;;;5068730;28;20051;-80
2021/12/03 09:07:15;;;;;;;7.18;1.23;;;;;;;;;;5066493;28;20441;-83
2021/12/03 09:09:40;;;;;;;4.68;1.08;;;;;;;;;;5063760;28;20083;-80
2021/12/03 09:12:07;;;;;;;2.45;0.80;;;;;;;;;;5056935;28;20033;-81
2021/12/03 09:14:43;;;;;;;4.90;1.42;;;;;;;;;;5072680;28;20552;-81
2021/12/03 09:19:57;;;;;;;3.42;1.25;;;;;;;;;;5064345;28;20035;-81
2021/12/03 09:22:41;;;;;;;3.40;0.88;;;;;;;;;;5078916;28;20028;-80
2021/12/03 09:25:11;;;;;;;4.07;1.30;;;;;;;;;;5060617;28;20115;-80
2021/12/03 09:27:37;;;;;;;4.28;1.50;;;;;;;;;;5052346;28;20033;-79
2021/12/03 09:30:06;;;;;;;3.15;1.27;;;;;;;;;;5058628;28;20024;-83
2021/12/03 09:32:33;;;;;;;4.20;1.52;;;;;;;;;;5069073;28;20028;-81
2021/12/03 09:34:59;;;;;;;3.05;1.75;;;;;;;;;;5061940;28;20123;-82
2021/12/03 09:37:25;;;;;;;9.10;1.80;;;;;;;;;;5062851;28;20032;-82
2021/12/03 09:39:51;;;;;;;6.18;2.17;;;;;;;;;;5057982;28;20033;-82
2021/12/03 09:42:21;;;;;;;5.13;1.38;;;;;;;;;;5053034;28;20107;-81
2021/12/03 09:44:50;;;;;;;5.00;1.42;;;;;;;;;;5054601;28;20029;-80
2021/12/03 09:47:18;;;;;;;4.88;1.33;;;;;;;;;;5066417;28;20049;-81
2021/12/03 09:49:44;;;;;;;2.40;1.20;;;;;;;;;;5053560;28;20067;-80
2021/12/03 09:52:38;;;;;;;10.38;3.28;;;;;;;;;;5059979;28;20115;-82
2021/12/03 09:55:12;;;;;;;54.53;24.38;;;;;;;;;;5061110;28;20079;-83
2021/12/03 09:57:45;;;;;;;6.40;1.67;;;;;;;;;;5057886;28;20027;-82
2021/12/03 10:00:35;;;;;;;7.35;1.27;;;;;;;;;;5060250;28;20078;-81
2021/12/03 10:14:35;;;;;;;5.00;1.73;;;;;;;;;;5066790;28;20029;-83
2021/12/03 10:41:44;;;;;;;7.47;1.38;;;;;;;;;;5060387;28;20104;-82
2021/12/03 10:44:16;;;;;;;5.00;1.23;;;;;;;;;;5069196;28;20060;-81
2021/12/03 10:52:29;;;;;;;4.95;1.10;;;;;;;;;;5067180;28;20035;-83
2021/12/03 11:17:56;;;;;;;7.63;1.33;;;;;;;;;;5066732;28;20037;-81
2021/12/03 11:29:00;;;;;;;5.97;1.02;;;;;;;;;;5058779;28;20029;-82
2021/12/03 13:22:46;;;;;;;3.58;1.17;;;;;;;;;;5069617;28;20106;-84
2021/12/03 14:02:30;;;;;;;2.65;0.88;;;;;;;;;;5061228;28;20039;-82
2021/12/03 14:10:40;;;;;;;11.57;4.53;;;;;;;;;;5065916;28;20033;-83
2021/12/03 14:51:39;;;;;;;6.07;1.50;;;;;;;;;;5056661;28;20111;-82
2021/12/03 14:54:24;;;;;;;7.13;1.95;;;;;;;;;;5063994;28;20028;-84
2021/12/03 14:57:14;;;;;;;7.10;1.33;;;;;;;;;;5066045;28;20309;-83
2021/12/03 14:59:52;;;;;;;4.57;1.63;;;;;;;;;;5059729;28;20036;-84
2021/12/03 15:02:34;;;;;;;7.03;1.23;;;;;;;;;;5053900;28;20121;-84
2021/12/03 15:05:18;;;;;;;5.88;1.33;;;;;;;;;;5058776;28;20031;-83
2021/12/03 15:07:45;;;;;;;3.28;1.30;;;;;;;;;;5063179;28;20056;-81
2021/12/03 15:37:40;;;;;;;4.35;1.73;;;;;;;;;;5062977;28;21311;-81
2021/12/03 16:05:00;;;;;;;11.80;5.95;;;;;;;;;;5065768;28;20031;-84
2021/12/03 16:10:15;;;;;;;8.18;4.18;;;;;;;;;;5069436;28;20101;-85
2021/12/03 16:15:57;;;;;;;8.85;4.20;;;;;;;;;;5067042;28;20123;-82
2021/12/03 16:53:23;;;;;;;24.38;10.55;;;;;;;;;;5064592;28;20090;-84
2021/12/03 16:58:35;;;;;;;50.42;26.98;;;;;;;;;;5063926;28;20031;-84
2021/12/03 17:01:14;;;;;;;52.45;25.63;;;;;;;;;;5057689;28;20503;-81
2021/12/03 17:46:58;;;;;;;13.85;8.07;;;;;;;;;;5065930;28;20059;-79
2021/12/03 18:00:12;;;;;;;10.77;6.85;;;;;;;;;;5060675;28;20385;-81
2021/12/03 18:02:45;;;;;;;7.82;5.32;;;;;;;;;;5057968;28;20028;-79
2021/12/03 18:16:47;;;;;;;7.90;4.70;;;;;;;;;;5060212;28;20121;-81
2021/12/03 18:44:04;;;;;;;10.73;7.00;;;;;;;;;;5066836;28;20178;-83
2021/12/03 18:57:09;;;;;;;11.82;7.18;;;;;;;;;;5064350;28;20036;-82
2021/12/03 18:59:39;;;;;;;10.52;7.65;;;;;;;;;;5056972;28;20025;-82
2021/12/03 19:02:07;;;;;;;14.55;9.98;;;;;;;;;;5076390;28;20502;-82
2021/12/03 19:04:50;;;;;;;11.60;7.93;;;;;;;;;;5059251;28;20021;-83
2021/12/03 19:07:21;;;;;;;18.50;10.57;;;;;;;;;;5057153;28;20025;-82
2021/12/03 19:09:50;;;;;;;17.23;9.80;;;;;;;;;;5063090;28;20536;-82
2021/12/03 19:12:21;;;;;;;10.52;6.93;;;;;;;;;;5062409;28;20033;-80
2021/12/03 19:14:57;;;;;;;14.80;9.52;;;;;;;;;;5067634;28;20468;-83
2021/12/03 19:17:25;;;;;;;11.75;6.90;;;;;;;;;;5066876;28;20016;-83
2021/12/03 19:19:56;;;;;;;10.38;6.45;;;;;;;;;;5062768;28;20043;-82
2021/12/03 19:22:22;;;;;;;12.15;7.90;;;;;;;;;;5060277;28;20033;-82
2021/12/03 19:24:48;;;;;;;9.50;7.45;;;;;;;;;;5051021;28;20491;-83
2021/12/03 19:27:14;;;;;;;15.23;10.50;;;;;;;;;;5064893;28;20040;-83
2021/12/03 19:29:42;;;;;;;16.60;11.85;;;;;;;;;;5076762;28;20025;-82
2021/12/03 19:32:08;;;;;;;13.27;9.63;;;;;;;;;;5063224;28;20044;-82
2021/12/03 19:34:34;;;;;;;13.90;9.30;;;;;;;;;;5054047;28;20028;-82
2021/12/03 19:36:59;;;;;;;20.13;10.40;;;;;;;;;;5066052;28;20033;-81
2021/12/03 19:39:26;;;;;;;29.60;15.15;;;;;;;;;;5055713;28;20032;-83
2021/12/03 19:42:06;;;;;;;19.90;11.23;;;;;;;;;;5067294;28;20025;-83
2021/12/03 19:44:37;;;;;;;22.45;12.27;;;;;;;;;;5062405;28;20703;-82
2021/12/03 19:47:04;;;;;;;24.98;13.23;;;;;;;;;;5059876;28;20075;-82
2021/12/03 19:52:05;;;;;;;21.95;10.57;;;;;;;;;;5066373;28;20028;-82
2021/12/03 19:54:31;;;;;;;25.20;13.38;;;;;;;;;;5052487;28;20028;-83
2021/12/03 19:56:56;;;;;;;12.02;7.32;;;;;;;;;;5070490;28;20033;-83
2021/12/03 19:59:22;;;;;;;18.90;10.02;;;;;;;;;;5051757;28;20032;-83
2021/12/03 20:01:47;;;;;;;20.63;11.45;;;;;;;;;;5052521;28;20158;-82
2021/12/03 20:04:14;;;;;;;13.05;9.25;;;;;;;;;;5058158;28;20055;-82
2021/12/03 20:06:43;;;;;;;14.68;9.57;;;;;;;;;;5066291;28;20024;-83
2021/12/03 20:09:14;;;;;;;13.40;9.55;;;;;;;;;;5064870;28;20033;-82
2021/12/03 20:11:43;;;;;;;26.85;14.25;;;;;;;;;;5071477;28;20070;-83
2021/12/03 20:14:11;;;;;;;16.73;10.30;;;;;;;;;;5067047;28;20103;-82
2021/12/03 20:16:52;;;;;;;16.90;11.95;;;;;;;;;;5068371;28;20483;-82
2021/12/03 20:19:38;;;;;;;21.17;11.60;;;;;;;;;;5065531;28;20466;-82
2021/12/03 20:22:15;;;;;;;11.32;6.75;;;;;;;;;;5059857;28;20037;-83
2021/12/03 20:27:24;;;;;;;10.23;7.20;;;;;;;;;;5072513;28;20368;-82
2021/12/03 20:32:35;;;;;;;7.75;5.85;;;;;;;;;;5061879;28;20103;-83
2021/12/03 20:37:35;;;;;;;8.20;5.40;;;;;;;;;;5063528;28;20039;-82
2021/12/03 20:40:07;;;;;;;10.25;6.50;;;;;;;;;;5067092;28;20029;-82
2021/12/03 20:42:44;;;;;;;8.10;5.25;;;;;;;;;;5070788;28;20105;-82
2021/12/03 20:45:22;;;;;;;8.63;5.75;;;;;;;;;;5068582;28;20037;-82
2021/12/03 20:53:21;;;;;;;10.20;7.25;;;;;;;;;;5061298;28;20094;-82
2021/12/03 21:09:20;;;;;;;5.65;3.80;;;;;;;;;;5069767;28;20042;-84
2021/12/03 21:11:48;;;;;;;14.60;5.47;;;;;;;;;;5068434;28;20040;-83
2021/12/03 21:14:38;;;;;;;8.05;3.88;;;;;;;;;;5065692;28;20032;-84
2021/12/03 21:19:43;;;;;;;10.63;6.65;;;;;;;;;;5066987;28;20103;-82
2021/12/03 21:22:19;;;;;;;11.35;7.03;;;;;;;;;;5078605;28;20033;-83
2021/12/03 21:24:47;;;;;;;14.93;7.68;;;;;;;;;;5065536;28;20027;-84
2021/12/03 21:27:20;;;;;;;10.98;7.25;;;;;;;;;;5069039;28;20397;-84
2021/12/03 21:30:12;;;;;;;14.05;7.95;;;;;;;;;;5066446;28;20034;-85
2021/12/03 21:32:56;;;;;;;12.95;7.32;;;;;;;;;;5058855;28;20051;-83
2021/12/03 21:43:33;;;;;;;8.50;5.13;;;;;;;;;;5010970;28;20151;-84
2021/12/03 21:45:59;;;;;;;14.77;6.78;;;;;;;;;;5050067;28;20128;-84
2021/12/03 21:48:24;;;;;;;12.50;5.70;;;;;;;;;;5064974;28;20028;-84
2021/12/03 21:50:50;;;;;;;8.40;4.78;;;;;;;;;;5063144;28;20021;-84
2021/12/03 21:53:15;;;;;;;8.75;5.55;;;;;;;;;;5064299;28;20024;-83
2021/12/03 21:55:45;;;;;;;8.50;4.80;;;;;;;;;;5062839;28;20033;-83
2021/12/03 21:58:11;;;;;;;10.10;5.38;;;;;;;;;;5064992;28;20021;-84
2021/12/03 22:00:37;;;;;;;9.25;6.35;;;;;;;;;;5063618;28;20024;-84
2021/12/03 22:03:04;;;;;;;9.15;5.68;;;;;;;;;;5065318;28;20032;-83
2021/12/03 22:05:29;;;;;;;10.55;6.40;;;;;;;;;;5060620;28;20035;-86
2021/12/03 22:07:55;;;;;;;8.57;4.90;;;;;;;;;;5063751;28;20021;-84
2021/12/03 22:10:21;;;;;;;8.27;5.80;;;;;;;;;;5061867;28;20136;-82
2021/12/03 22:12:47;;;;;;;11.48;5.18;;;;;;;;;;5062209;28;20024;-84
2021/12/03 22:15:12;;;;;;;8.27;5.10;;;;;;;;;;5065354;28;20494;-83
2021/12/03 22:17:38;;;;;;;9.27;4.30;;;;;;;;;;5070065;28;20385;-83
2021/12/03 22:20:05;;;;;;;6.97;4.05;;;;;;;;;;5059885;28;20063;-83
2021/12/03 22:22:31;;;;;;;6.88;3.53;;;;;;;;;;5067134;28;20024;-84
2021/12/03 22:24:56;;;;;;;5.43;3.70;;;;;;;;;;5068037;28;20086;-83
2021/12/03 22:27:23;;;;;;;9.95;3.97;;;;;;;;;;5063946;28;20127;-83
2021/12/03 22:29:48;;;;;;;6.55;3.90;;;;;;;;;;5057681;28;20021;-84
2021/12/03 22:32:14;;;;;;;5.50;3.90;;;;;;;;;;5062269;28;20082;-85
2021/12/03 22:34:39;;;;;;;6.13;3.83;;;;;;;;;;5059007;28;20056;-84
2021/12/03 22:37:05;;;;;;;5.07;2.65;;;;;;;;;;5064383;28;20021;-85
2021/12/03 22:39:31;;;;;;;7.32;4.32;;;;;;;;;;5067956;28;20058;-86
2021/12/03 22:41:57;;;;;;;7.47;4.70;;;;;;;;;;5059959;28;20064;-84
2021/12/03 22:44:23;;;;;;;7.10;4.18;;;;;;;;;;5063246;28;20032;-85
2021/12/03 22:49:38;;;;;;;6.85;3.85;;;;;;;;;;5061009;28;20491;-84
2021/12/03 22:52:09;;;;;;;6.80;3.75;;;;;;;;;;5062055;28;20024;-84
2021/12/03 22:54:38;;;;;;;7.47;3.95;;;;;;;;;;5070882;28;20024;-85
2021/12/03 22:57:16;;;;;;;7.55;3.67;;;;;;;;;;5083451;28;20017;-84
2021/12/03 22:59:42;;;;;;;4.68;2.92;;;;;;;;;;5060959;28;20468;-85
2021/12/03 23:02:10;;;;;;;9.18;3.80;;;;;;;;;;5063199;28;20579;-85
2021/12/03 23:04:40;;;;;;;7.82;4.40;;;;;;;;;;5060210;28;20515;-84
2021/12/03 23:07:10;;;;;;;5.50;3.90;;;;;;;;;;5063927;28;20090;-86
2021/12/03 23:09:37;;;;;;;6.80;3.65;;;;;;;;;;5062622;28;20028;-84
2021/12/03 23:12:03;;;;;;;6.70;3.30;;;;;;;;;;5069775;28;20024;-84
2021/12/03 23:14:29;;;;;;;8.00;4.47;;;;;;;;;;5056835;28;20041;-85
2021/12/03 23:17:00;;;;;;;12.25;4.43;;;;;;;;;;5062470;28;20457;-87
2021/12/03 23:19:26;;;;;;;7.32;4.13;;;;;;;;;;5066328;28;20028;-85